Terminal Aerodrome Forecast
Issued by NWS

Current Version | Previous Version | Graphics & Text | Print | Product List | Glossary On
Versions: 1 2 3 4 5 6 7 8 9 10 11 12 13 14 15 16 17 18 19
000
FTUS41 KILN 282057 AAA
TAFLCK
TAF AMD
KLCK 282057Z 2821/2918 18003KT P6SM SKC
     FM290000 09004KT P6SM BKN250
     FM291300 15004KT P6SM SCT040 BKN200
     FM291600 19007KT P6SM BKN040=

USA.gov is the U.S. government's official web portal to all federal, state and local government web resources and services.